Terminal Aerodrome Forecast
Issued by NWS

Current Version | Previous Version | Text Only | Print | Product List | Glossary Off
Versions: 1 2 3 4 5 6 7 8 9 10 11 12 13 14 15

000
FTUS41 KPBZ 251127
TAFHLG
TAF
KHLG 251127Z 2512/2612 18008KT P6SM BKN150
     FM251500 23010G18KT P6SM SCT050
     FM260000 21005KT P6SM BKN100=

USA.gov is the U.S. government's official web portal to all federal, state and local government web resources and services.